Time;durP1;ratioP1;P1;durP2;ratioP2;P2;SDS_P1;SDS_P2;PMS_P1;PMS_P2;Temp;Humidity;BMP_temperature;BMP_pressure;BME280_temperature;BME280_humidity;BME280_pressure;Samples;Min_cycle;Max_cycle;Signal;HPM_P1;HPM_P2
2023/03/22 00:04:14;;;;;;;39.55;18.23;;;;;;;9.02;75.61;100089.25;12959769;22;20028;-67
2023/03/22 00:09:16;;;;;;;39.42;18.60;;;;;;;9.02;75.49;100083.91;12970157;22;20026;-68
2023/03/22 00:14:18;;;;;;;29.23;16.77;;;;;;;9.04;75.69;100078.38;12947922;22;20023;-66
2023/03/22 00:19:19;;;;;;;34.97;15.70;;;;;;;9.04;75.72;100083.72;12928601;22;20068;-67
2023/03/22 00:24:20;;;;;;;28.10;14.45;;;;;;;8.97;75.85;100070.19;12971121;23;20094;-66
2023/03/22 00:34:35;;;;;;;30.75;14.75;;;;;;;8.91;75.67;100063.66;13033688;22;20292;-66
2023/03/22 00:39:36;;;;;;;27.35;15.40;;;;;;;8.90;76.15;100058.47;13032478;22;20007;-68
2023/03/22 00:44:38;;;;;;;29.70;15.20;;;;;;;8.91;75.95;100047.59;13031607;22;20048;-67
2023/03/22 00:49:40;;;;;;;31.55;15.02;;;;;;;8.97;76.09;100046.06;13031641;22;20032;-68
2023/03/22 00:54:41;;;;;;;32.03;16.08;;;;;;;8.98;76.39;100044.22;13026877;22;20023;-69
2023/03/22 00:59:43;;;;;;;60.38;22.65;;;;;;;9.04;76.14;100046.19;13022307;22;20020;-67
2023/03/22 01:04:45;;;;;;;72.07;29.63;;;;;;;9.25;76.89;100034.88;13025854;22;20059;-66
2023/03/22 01:09:47;;;;;;;81.78;31.70;;;;;;;9.49;77.20;100026.69;12997598;22;20023;-67
2023/03/22 01:14:49;;;;;;;77.78;31.58;;;;;;;9.69;77.55;100027.06;13023258;22;20027;-66
2023/03/22 01:19:50;;;;;;;72.40;29.38;;;;;;;9.85;77.65;100025.28;12986112;22;20034;-67
2023/03/22 01:30:06;;;;;;;62.38;26.73;;;;;;;10.11;78.00;100017.69;12874428;23;20021;-71
2023/03/22 01:35:08;;;;;;;60.88;27.48;;;;;;;10.22;77.83;100008.34;12886928;23;20020;-68
2023/03/22 01:40:11;;;;;;;53.53;24.55;;;;;;;10.30;77.59;100013.69;12886720;23;20031;-69
2023/03/22 01:45:13;;;;;;;55.30;24.98;;;;;;;10.39;77.53;100014.44;12879109;23;20032;-69
2023/03/22 01:50:16;;;;;;;58.22;25.80;;;;;;;10.44;78.01;100006.66;12873427;23;20031;-72
2023/03/22 01:55:22;;;;;;;62.67;24.42;;;;;;;10.52;77.60;99998.53;12870126;23;20025;-71
2023/03/22 02:00:23;;;;;;;52.95;24.15;;;;;;;10.58;77.79;100002.31;12889232;23;20028;-68
2023/03/22 02:05:25;;;;;;;45.55;23.05;;;;;;;10.63;77.50;99991.03;12884631;23;20028;-69
2023/03/22 02:10:27;;;;;;;49.15;22.67;;;;;;;10.67;77.39;99984.25;12885946;23;20021;-71
2023/03/22 02:15:37;;;;;;;50.92;22.52;;;;;;;10.66;77.01;99975.38;12890529;23;20012;-67
2023/03/22 02:20:59;;;;;;;43.85;20.52;;;;;;;10.64;76.96;99974.72;12891950;23;20031;-72
2023/03/22 02:26:17;;;;;;;36.63;19.42;;;;;;;10.56;77.28;99974.78;12887415;23;20168;-68
2023/03/22 02:32:08;;;;;;;41.70;20.33;;;;;;;10.50;77.18;99978.22;12890921;23;20032;-67
2023/03/22 02:37:16;;;;;;;37.03;18.05;;;;;;;10.48;77.37;99970.34;12820419;23;20033;-67
2023/03/22 02:42:34;;;;;;;;;;;;;;;10.44;77.26;99966.34;12862343;23;20025;-70
2023/03/22 02:47:42;;;;;;;34.40;17.00;;;;;;;10.43;77.46;99959.31;12887295;23;19927;-69
2023/03/22 02:52:49;;;;;;;;;;;;;;;10.42;77.07;99965.69;12841851;23;20028;-72
2023/03/22 02:57:56;;;;;;;30.00;16.27;;;;;;;10.45;77.00;99965.34;12851641;23;19942;-72
2023/03/22 03:03:10;;;;;;;27.45;15.45;;;;;;;10.38;77.19;99969.78;12853761;23;20350;-69
2023/03/22 03:08:14;;;;;;;32.28;16.52;;;;;;;10.37;77.43;99969.97;12854149;23;20071;-70
2023/03/22 03:13:17;;;;;;;33.95;18.52;;;;;;;10.36;76.95;99979.06;12850659;23;20074;-73
2023/03/22 03:18:26;;;;;;;31.05;16.17;;;;;;;10.36;76.97;99977.19;12823920;23;20028;-71
2023/03/22 03:23:59;;;;;;;30.20;16.55;;;;;;;10.27;77.12;99975.59;12852949;23;20016;-72
2023/03/22 03:29:10;;;;;;;35.70;17.27;;;;;;;10.31;77.00;99963.50;12843271;23;20027;-70
2023/03/22 03:34:20;;;;;;;30.98;15.65;;;;;;;10.25;77.00;99959.66;12861262;23;20020;-70
2023/03/22 03:39:26;;;;;;;33.13;16.88;;;;;;;10.23;77.07;99955.47;12859360;23;20083;-71
2023/03/22 03:44:30;;;;;;;37.65;18.38;;;;;;;10.11;77.12;99953.25;12855447;23;20021;-73
2023/03/22 03:49:31;;;;;;;33.33;17.70;;;;;;;10.17;76.93;99951.69;12825965;23;20047;-71
2023/03/22 03:54:33;;;;;;;35.17;18.60;;;;;;;10.18;76.49;99941.75;12848666;23;20020;-72
2023/03/22 03:59:34;;;;;;;40.10;18.65;;;;;;;10.12;76.36;99933.41;12849273;23;20590;-72
2023/03/22 04:04:36;;;;;;;44.85;19.92;;;;;;;9.93;76.53;99945.53;12860485;23;20365;-70
2023/03/22 04:09:38;;;;;;;49.15;21.35;;;;;;;9.80;77.19;99944.47;12846533;23;20020;-74
2023/03/22 04:14:40;;;;;;;51.80;22.23;;;;;;;9.77;76.99;99942.13;12846233;23;20021;-72
2023/03/22 04:19:43;;;;;;;55.83;23.13;;;;;;;9.75;76.84;99949.53;12845870;23;20024;-71
2023/03/22 04:24:49;;;;;;;55.60;23.20;;;;;;;9.56;77.21;99932.91;12845596;23;20021;-71
2023/03/22 04:29:51;;;;;;;54.58;22.98;;;;;;;9.51;77.09;99928.06;12846317;23;20105;-74
2023/03/22 04:34:52;;;;;;;59.35;22.38;;;;;;;9.50;76.80;99918.38;12846273;23;20055;-73
2023/03/22 04:39:53;;;;;;;57.08;23.58;;;;;;;9.39;76.95;99923.31;12845489;23;20028;-71
2023/03/22 04:44:55;;;;;;;72.70;26.27;;;;;;;9.31;77.14;99917.00;12846789;23;20024;-72
2023/03/22 04:49:56;;;;;;;72.22;25.35;;;;;;;9.38;76.98;99910.91;12830457;23;20024;-74
2023/03/22 04:54:58;;;;;;;55.97;24.40;;;;;;;9.38;76.26;99906.41;12848063;23;20470;-74
2023/03/22 04:59:59;;;;;;;59.63;23.75;;;;;;;9.36;76.37;99904.88;12845862;23;20502;-73
2023/03/22 05:05:00;;;;;;;53.08;22.33;;;;;;;9.27;76.14;99898.75;12846862;23;20025;-74
2023/03/22 05:10:02;;;;;;;48.42;20.65;;;;;;;9.21;75.94;99899.47;12843377;23;20079;-73
2023/03/22 05:15:05;;;;;;;44.15;22.15;;;;;;;9.15;75.88;99909.06;12818895;23;20028;-71
2023/03/22 05:20:08;;;;;;;46.83;20.58;;;;;;;9.09;75.58;99915.97;12846974;23;20027;-72
2023/03/22 05:25:10;;;;;;;42.75;19.02;;;;;;;9.01;75.88;99915.19;12859939;23;20035;-69
2023/03/22 05:30:12;;;;;;;46.33;19.48;;;;;;;8.98;75.40;99918.22;12841633;23;20027;-72
2023/03/22 05:35:13;;;;;;;45.35;20.15;;;;;;;8.95;75.61;99927.47;12865950;23;20095;-71
2023/03/22 05:40:15;;;;;;;39.25;18.83;;;;;;;8.91;75.86;99924.28;12865078;23;20024;-71
2023/03/22 05:45:17;;;;;;;47.83;20.33;;;;;;;8.85;75.90;99927.66;12858465;23;20053;-71
2023/03/22 05:50:21;;;;;;;57.15;21.55;;;;;;;8.67;76.40;99929.78;12863959;23;20075;-71
2023/03/22 05:55:22;;;;;;;45.30;21.83;;;;;;;8.62;77.02;99940.16;12836577;23;20453;-72
2023/03/22 06:00:24;;;;;;;51.92;21.83;;;;;;;8.71;76.70;99939.13;12822647;23;20669;-71
2023/03/22 06:05:26;;;;;;;45.10;21.70;;;;;;;8.81;76.29;99928.22;12820062;23;20069;-72
2023/03/22 06:10:28;;;;;;;58.47;22.90;;;;;;;8.89;76.17;99920.94;12869776;23;20024;-72
2023/03/22 06:15:29;;;;;;;53.22;22.38;;;;;;;8.96;76.40;99917.56;12875090;23;20080;-72
2023/03/22 06:20:31;;;;;;;47.42;21.60;;;;;;;9.00;76.43;99917.03;12844410;23;20084;-70
2023/03/22 06:25:32;;;;;;;50.30;21.75;;;;;;;9.13;76.79;99924.50;12856790;23;20989;-68
2023/03/22 06:30:34;;;;;;;54.50;22.27;;;;;;;9.26;76.58;99938.16;12864388;23;20032;-68
2023/03/22 06:35:36;;;;;;;45.20;21.45;;;;;;;9.42;76.98;99934.53;12826045;23;20033;-67
2023/03/22 06:40:37;;;;;;;49.95;23.23;;;;;;;9.52;76.98;99931.63;12863904;23;20029;-67
2023/03/22 06:45:39;;;;;;;44.63;22.40;;;;;;;9.72;76.79;99938.16;12855640;23;20025;-67
2023/03/22 06:50:42;;;;;;;49.35;21.88;;;;;;;9.91;76.89;99935.97;12856472;23;20021;-68
2023/03/22 06:55:45;;;;;;;41.95;21.40;;;;;;;10.07;77.42;99943.88;12848121;23;20028;-71
2023/03/22 07:00:46;;;;;;;44.03;22.02;;;;;;;10.24;77.60;99941.84;12845420;23;20025;-70
2023/03/22 07:05:47;;;;;;;28.20;17.48;;;;;;;10.46;78.09;99942.81;12845031;23;20033;-71
2023/03/22 07:10:50;;;;;;;22.48;12.60;;;;;;;10.73;78.32;99945.06;12843956;23;20021;-69
2023/03/22 07:15:59;;;;;;;15.85;9.80;;;;;;;10.89;78.07;99940.28;12816034;23;20091;-70
2023/03/22 07:21:01;;;;;;;17.00;9.38;;;;;;;11.05;78.49;99943.78;12844573;23;20044;-73
2023/03/22 07:26:02;;;;;;;23.10;13.50;;;;;;;11.22;77.77;99934.47;12845648;23;20028;-72
2023/03/22 07:31:08;;;;;;;14.13;9.45;;;;;;;11.30;77.77;99934.34;12845158;23;20028;-69
2023/03/22 07:36:10;;;;;;;16.60;9.48;;;;;;;11.41;77.21;99926.78;12817202;23;20028;-71
2023/03/22 07:41:12;;;;;;;17.08;10.15;;;;;;;11.58;76.91;99924.66;12845914;23;20021;-70
2023/03/22 07:46:13;;;;;;;16.30;10.73;;;;;;;11.81;76.82;99932.50;12842884;23;20028;-72
2023/03/22 07:51:15;;;;;;;13.80;8.25;;;;;;;11.92;76.54;99921.25;12844536;23;20025;-70
2023/03/22 07:56:17;;;;;;;17.73;9.13;;;;;;;11.98;76.77;99919.63;12843791;23;20024;-70
2023/03/22 08:01:19;;;;;;;12.10;7.00;;;;;;;12.12;75.98;99909.78;12817487;23;20025;-71
2023/03/22 08:06:20;;;;;;;12.07;7.78;;;;;;;12.47;75.85;99916.03;12841516;23;20062;-69
2023/03/22 08:11:21;;;;;;;8.15;6.45;;;;;;;12.56;75.63;99917.53;12843214;23;20035;-71
2023/03/22 08:16:23;;;;;;;13.63;6.95;;;;;;;12.66;74.82;99912.59;12845712;23;20027;-71
2023/03/22 08:21:24;;;;;;;11.55;6.40;;;;;;;12.91;75.11;99912.06;12847942;23;20127;-71
2023/03/22 08:26:26;;;;;;;11.07;6.97;;;;;;;13.08;74.46;99918.75;12823047;23;20083;-70
2023/03/22 08:31:28;;;;;;;10.23;5.40;;;;;;;13.12;74.46;99919.19;12850247;23;20048;-68
2023/03/22 08:36:29;;;;;;;10.18;6.80;;;;;;;13.17;74.18;99914.03;12846706;23;20031;-68
2023/03/22 08:41:31;;;;;;;11.73;5.63;;;;;;;13.39;73.59;99913.88;12849289;23;20021;-69
2023/03/22 08:46:32;;;;;;;10.20;5.85;;;;;;;13.53;73.06;99915.56;12823654;23;20021;-68
2023/03/22 08:51:34;;;;;;;6.93;4.75;;;;;;;13.89;72.64;99911.63;12848839;23;20216;-69
2023/03/22 08:56:36;;;;;;;8.85;4.15;;;;;;;14.09;71.98;99895.41;12849486;23;20028;-69
2023/03/22 09:01:38;;;;;;;4.45;2.80;;;;;;;14.22;71.51;99899.97;12847728;23;20265;-71
2023/03/22 09:06:43;;;;;;;6.03;2.90;;;;;;;14.34;71.14;99892.03;12847652;23;20080;-70
2023/03/22 09:11:44;;;;;;;5.55;2.45;;;;;;;14.61;70.33;99898.19;12846424;23;20028;-69
2023/03/22 09:16:46;;;;;;;7.07;2.85;;;;;;;14.83;69.35;99875.22;12847886;23;20331;-70
2023/03/22 09:21:48;;;;;;;7.63;2.28;;;;;;;14.97;68.61;99878.69;12819759;23;20028;-70
2023/03/22 09:26:50;;;;;;;6.38;2.42;;;;;;;15.06;68.12;99866.56;12847714;23;20025;-70
2023/03/22 09:31:52;;;;;;;3.90;1.85;;;;;;;15.31;67.42;99865.78;12848470;23;20028;-70
2023/03/22 09:36:53;;;;;;;7.90;2.50;;;;;;;15.54;66.81;99853.50;12850244;23;20373;-71
2023/03/22 09:42:01;;;;;;;4.13;1.45;;;;;;;15.82;65.81;99840.38;12848032;23;20024;-71
2023/03/22 09:47:04;;;;;;;5.53;1.70;;;;;;;16.12;65.11;99831.53;12847727;23;20048;-70
2023/03/22 09:52:12;;;;;;;6.32;2.33;;;;;;;16.27;64.42;99828.44;12845969;23;20024;-70
2023/03/22 09:57:17;;;;;;;7.22;1.30;;;;;;;16.22;63.97;99828.31;12846043;23;20028;-70
2023/03/22 10:02:46;;;;;;;5.43;1.20;;;;;;;16.34;62.95;99825.66;12846262;23;20024;-70
2023/03/22 10:08:12;;;;;;;3.05;1.20;;;;;;;16.44;62.07;99810.50;12846949;23;20462;-70
2023/03/22 10:13:38;;;;;;;6.85;1.42;;;;;;;16.60;61.68;99803.59;12847140;23;20090;-72
2023/03/22 10:18:45;;;;;;;4.70;0.90;;;;;;;16.41;61.33;99808.25;12818674;23;20029;-72
2023/03/22 10:23:55;;;;;;;3.22;1.25;;;;;;;16.33;60.81;99813.13;12821072;23;20029;-70
2023/03/22 10:29:11;;;;;;;3.47;1.65;;;;;;;16.26;59.84;99810.53;12848506;23;20028;-71
2023/03/22 10:34:42;;;;;;;2.58;0.93;;;;;;;16.23;58.90;99814.53;12847424;23;20024;-72
2023/03/22 10:39:48;;;;;;;3.95;0.65;;;;;;;16.30;58.32;99814.44;12813222;23;20036;-72
2023/03/22 10:45:01;;;;;;;0.82;0.60;;;;;;;16.55;57.73;99814.34;12844363;23;20811;-70
2023/03/22 10:50:10;;;;;;;1.60;0.60;;;;;;;16.50;56.47;99807.94;12846058;23;20039;-70
2023/03/22 10:55:14;;;;;;;0.60;0.50;;;;;;;16.35;55.04;99821.88;12846080;23;20031;-69
2023/03/22 11:00:16;;;;;;;2.67;0.98;;;;;;;16.38;55.20;99819.53;12845390;23;20082;-69
2023/03/22 11:05:27;;;;;;;2.50;0.88;;;;;;;16.50;54.75;99807.94;12847123;23;20078;-69
2023/03/22 11:10:33;;;;;;;3.88;0.40;;;;;;;16.66;54.67;99810.84;12845247;23;20028;-69
2023/03/22 11:15:38;;;;;;;1.40;0.40;;;;;;;16.88;54.90;99806.81;12847596;23;20536;-69
2023/03/22 11:20:52;;;;;;;44.22;1.40;;;;;;;17.09;53.62;99792.72;12845315;23;20036;-69
2023/03/22 11:25:57;;;;;;;3.13;0.40;;;;;;;17.60;52.43;99783.09;12847696;23;20075;-69
2023/03/22 11:31:11;;;;;;;1.92;0.50;;;;;;;18.01;51.53;99772.34;12846945;23;20024;-69
2023/03/22 11:36:17;;;;;;;1.23;0.40;;;;;;;18.14;50.38;99788.38;12845121;23;20036;-69
2023/03/22 11:41:22;;;;;;;1.37;0.40;;;;;;;18.10;50.82;99772.81;12828052;23;20020;-70
2023/03/22 11:46:24;;;;;;;3.63;1.05;;;;;;;18.30;50.11;99746.00;12844510;23;20519;-69
2023/03/22 11:51:31;;;;;;;1.05;0.28;;;;;;;18.71;49.45;99748.69;12851229;23;20104;-69
2023/03/22 11:56:33;;;;;;;1.60;0.40;;;;;;;18.67;48.19;99753.78;12851968;23;20028;-72
2023/03/22 12:01:41;;;;;;;1.02;0.28;;;;;;;18.77;47.45;99753.97;12852049;23;20083;-72
2023/03/22 12:06:42;;;;;;;1.63;0.30;;;;;;;19.13;46.65;99734.72;12849791;23;20075;-71
2023/03/22 12:11:47;;;;;;;3.58;0.40;;;;;;;19.25;45.37;99732.72;12852079;23;20028;-72
2023/03/22 12:16:54;;;;;;;3.38;0.30;;;;;;;19.20;44.41;99738.13;12857590;23;20033;-72
2023/03/22 12:21:56;;;;;;;2.38;0.40;;;;;;;19.38;43.28;99748.75;12836808;23;20068;-72
2023/03/22 12:27:13;;;;;;;0.80;0.20;;;;;;;19.49;42.43;99765.25;12808193;23;20017;-71
2023/03/22 12:32:20;;;;;;;2.57;0.30;;;;;;;19.54;42.18;99758.00;12843804;23;20024;-72
2023/03/22 12:37:29;;;;;;;1.98;0.30;;;;;;;19.66;41.70;99740.72;12835642;23;20020;-71
2023/03/22 12:42:56;;;;;;;3.72;0.30;;;;;;;19.68;41.44;99725.75;12858288;23;20021;-73
2023/03/22 12:48:39;;;;;;;1.48;0.32;;;;;;;19.67;41.29;99735.00;12841673;23;20030;-73
2023/03/22 12:53:51;;;;;;;1.40;0.30;;;;;;;19.73;41.07;99719.59;12823303;23;20033;-71
2023/03/22 12:59:01;;;;;;;0.90;0.40;;;;;;;19.81;41.11;99719.13;12835299;23;20031;-71
2023/03/22 13:04:50;;;;;;;0.70;0.30;;;;;;;19.85;41.38;99711.28;12807691;23;20095;-69
2023/03/22 13:09:52;;;;;;;1.83;0.30;;;;;;;20.00;41.62;99700.53;12802520;23;20031;-71
2023/03/22 13:15:30;;;;;;;0.32;0.22;;;;;;;20.22;41.00;99695.06;12805427;23;20027;-69
2023/03/22 13:20:42;;;;;;;0.50;0.30;;;;;;;20.07;41.27;99701.19;12839554;23;20088;-70
2023/03/22 13:26:03;;;;;;;1.38;0.40;;;;;;;20.12;40.48;99673.97;12796299;23;20102;-66
2023/03/22 13:31:05;;;;;;;0.40;0.30;;;;;;;20.22;40.38;99692.34;12849678;23;20020;-66
2023/03/22 13:36:21;;;;;;;0.85;0.30;;;;;;;20.38;39.55;99675.06;12822024;23;20083;-66
2023/03/22 13:41:27;;;;;;;0.30;0.20;;;;;;;20.41;39.15;99662.78;12821514;23;20650;-66
2023/03/22 13:46:35;;;;;;;1.33;0.15;;;;;;;20.48;39.01;99662.56;12844906;23;20083;-67
2023/03/22 13:51:36;;;;;;;1.05;0.20;;;;;;;20.93;38.83;99666.81;12847476;23;20031;-66
2023/03/22 13:56:41;;;;;;;2.00;0.90;;;;;;;20.80;37.90;99660.72;12849419;23;20385;-66
2023/03/22 14:01:48;;;;;;;1.63;0.82;;;;;;;20.65;38.42;99655.13;12818013;23;20037;-68
2023/03/22 14:07:06;;;;;;;1.70;0.30;;;;;;;20.60;38.10;99672.28;12847469;23;20024;-67
2023/03/22 14:12:20;;;;;;;0.52;0.25;;;;;;;20.44;38.36;99655.97;12853481;23;20021;-67
2023/03/22 14:17:54;;;;;;;1.65;0.20;;;;;;;20.37;38.43;99661.66;12848811;23;20024;-66
2023/03/22 14:23:00;;;;;;;2.42;0.40;;;;;;;20.16;38.65;99655.16;12852575;23;20095;-67
2023/03/22 14:28:01;;;;;;;0.22;0.20;;;;;;;19.93;38.98;99657.09;12852049;23;20056;-68
2023/03/22 14:33:14;;;;;;;2.30;0.20;;;;;;;19.75;39.69;99650.06;12867115;23;20039;-67
2023/03/22 14:38:19;;;;;;;1.55;0.55;;;;;;;19.55;40.60;99649.75;12859151;23;20032;-68
2023/03/22 14:43:19;;;;;;;1.92;0.43;;;;;;;19.36;40.39;99647.34;12844874;23;20593;-68
2023/03/22 14:48:23;;;;;;;0.57;0.20;;;;;;;19.18;40.27;99645.72;12850875;23;20021;-68
2023/03/22 14:53:32;;;;;;;1.40;0.40;;;;;;;19.05;40.33;99658.84;12829397;23;20032;-67
2023/03/22 14:58:35;;;;;;;0.50;0.20;;;;;;;18.96;40.57;99648.38;12830732;23;20036;-66
2023/03/22 15:03:36;;;;;;;4.65;0.28;;;;;;;18.95;40.88;99651.34;12791515;23;20024;-66
2023/03/22 15:08:36;;;;;;;1.10;0.30;;;;;;;18.98;41.40;99640.78;12817367;23;20539;-67
2023/03/22 15:13:38;;;;;;;1.03;0.30;;;;;;;19.03;41.23;99631.88;12817788;23;20260;-66
2023/03/22 15:18:39;;;;;;;1.25;0.30;;;;;;;18.81;41.51;99635.34;12792859;23;20726;-67
2023/03/22 15:23:54;;;;;;;0.70;0.20;;;;;;;18.87;41.80;99630.81;12851125;23;20020;-67
2023/03/22 15:29:03;;;;;;;1.55;0.20;;;;;;;18.89;42.06;99636.00;12818163;23;20098;-71
2023/03/22 15:34:05;;;;;;;0.88;0.20;;;;;;;18.77;42.17;99633.34;12818281;23;20035;-68
2023/03/22 15:39:32;;;;;;;0.88;0.15;;;;;;;18.92;42.40;99630.06;12818345;23;20108;-69
2023/03/22 15:44:35;;;;;;;2.70;0.43;;;;;;;18.89;41.99;99634.09;12815476;23;20488;-68
2023/03/22 15:49:38;;;;;;;1.45;0.30;;;;;;;18.82;42.10;99633.47;12858212;23;20048;-69
2023/03/22 15:54:53;;;;;;;1.70;0.30;;;;;;;18.80;42.05;99625.53;12844679;23;20025;-68
2023/03/22 16:00:08;;;;;;;1.27;0.20;;;;;;;18.70;42.15;99625.34;12794697;23;20028;-68
2023/03/22 16:05:11;;;;;;;0.55;0.20;;;;;;;18.78;41.98;99624.13;12820001;23;20021;-69
2023/03/22 16:10:16;;;;;;;0.88;0.60;;;;;;;18.76;42.05;99632.53;12816992;23;20421;-68
2023/03/22 16:15:20;;;;;;;0.63;0.10;;;;;;;18.75;42.31;99630.84;12818797;23;20036;-70
2023/03/22 16:20:20;;;;;;;0.85;0.40;;;;;;;18.85;42.30;99640.31;12815263;23;20035;-69
2023/03/22 16:25:24;;;;;;;4.13;0.30;;;;;;;18.70;42.46;99630.78;12817119;23;20052;-68
2023/03/22 16:30:25;;;;;;;1.20;0.20;;;;;;;18.71;42.54;99634.34;12817374;23;20028;-68
2023/03/22 16:35:26;;;;;;;1.67;0.20;;;;;;;18.62;42.65;99633.91;12817248;23;20366;-68
2023/03/22 16:40:28;;;;;;;0.95;0.20;;;;;;;18.57;42.51;99640.09;12821834;23;20025;-69
2023/03/22 16:45:33;;;;;;;4.63;0.20;;;;;;;18.58;42.50;99635.47;12819932;23;20028;-68
2023/03/22 16:50:37;;;;;;;2.40;0.20;;;;;;;18.55;42.61;99630.53;12821513;23;20028;-69
2023/03/22 16:55:37;;;;;;;1.52;0.30;;;;;;;18.53;42.75;99636.22;12861711;23;20488;-69
2023/03/22 17:00:38;;;;;;;0.53;0.20;;;;;;;18.47;42.67;99637.19;12822175;23;20029;-69
2023/03/22 17:05:38;;;;;;;2.65;0.68;;;;;;;18.41;42.77;99640.91;12827799;23;20260;-69
2023/03/22 17:10:39;;;;;;;1.57;0.20;;;;;;;18.39;42.86;99638.44;12848885;23;20044;-67
2023/03/22 17:15:43;;;;;;;0.82;0.25;;;;;;;18.26;42.58;99637.91;12819322;23;20359;-67
2023/03/22 17:20:45;;;;;;;1.83;0.30;;;;;;;18.29;42.66;99653.75;12795280;23;20033;-68
2023/03/22 17:25:50;;;;;;;2.75;0.30;;;;;;;18.20;42.84;99656.84;12816538;23;20103;-66
2023/03/22 17:30:50;;;;;;;3.78;0.77;;;;;;;18.16;43.07;99650.25;12817267;23;20031;-67
2023/03/22 17:35:51;;;;;;;1.58;0.50;;;;;;;18.15;43.01;99658.66;12818741;23;20366;-74
2023/03/22 17:40:52;;;;;;;2.33;0.87;;;;;;;18.17;43.14;99672.84;12817320;23;20740;-69
2023/03/22 17:45:52;;;;;;;1.45;0.65;;;;;;;18.09;43.16;99668.63;12819062;23;20078;-72
2023/03/22 17:50:54;;;;;;;0.70;0.30;;;;;;;18.04;43.34;99663.06;12819453;23;20036;-73
2023/03/22 17:55:54;;;;;;;3.45;0.40;;;;;;;18.05;43.30;99653.84;12856625;23;20358;-73
2023/03/22 18:00:54;;;;;;;2.70;0.60;;;;;;;18.07;43.39;99653.59;12848402;23;20025;-73
2023/03/22 18:05:55;;;;;;;1.07;0.50;;;;;;;18.00;43.68;99651.03;12793914;23;20024;-72
2023/03/22 18:10:55;;;;;;;1.42;0.77;;;;;;;17.90;43.65;99651.66;12855587;23;20115;-70
2023/03/22 18:15:56;;;;;;;3.95;1.20;;;;;;;17.84;43.80;99650.72;12846881;23;20033;-72
2023/03/22 18:21:07;;;;;;;5.03;0.60;;;;;;;17.72;44.26;99646.34;12850251;23;20024;-68
2023/03/22 18:26:11;;;;;;;2.13;0.60;;;;;;;17.68;44.10;99650.63;12842411;23;20032;-73
2023/03/22 18:31:12;;;;;;;2.00;0.73;;;;;;;17.63;43.79;99638.59;12814075;23;20362;-71
2023/03/22 18:36:13;;;;;;;2.80;0.68;;;;;;;17.64;43.88;99642.94;12809016;23;20031;-67
2023/03/22 18:41:13;;;;;;;1.95;0.60;;;;;;;17.65;43.78;99643.75;12842748;23;20409;-70
2023/03/22 18:46:15;;;;;;;1.00;0.38;;;;;;;17.51;44.01;99643.19;12816903;23;20059;-69
2023/03/22 18:51:16;;;;;;;1.75;0.38;;;;;;;17.45;44.15;99636.00;12816723;23;20087;-72
2023/03/22 18:56:16;;;;;;;3.73;0.40;;;;;;;17.38;44.24;99641.56;12819010;23;20052;-73
2023/03/22 19:01:16;;;;;;;1.63;0.50;;;;;;;17.39;44.33;99639.69;12841910;23;20255;-73
2023/03/22 19:06:18;;;;;;;3.77;0.50;;;;;;;17.37;44.46;99630.94;12853811;23;20071;-69
2023/03/22 19:11:19;;;;;;;1.38;0.60;;;;;;;17.27;44.39;99642.41;12856511;23;20028;-72
2023/03/22 19:16:20;;;;;;;3.10;0.52;;;;;;;17.28;44.13;99643.22;12828079;23;20469;-67
2023/03/22 19:21:21;;;;;;;2.15;0.40;;;;;;;17.29;44.10;99645.72;12828559;23;20024;-71
2023/03/22 19:26:21;;;;;;;4.55;0.43;;;;;;;17.25;43.93;99630.94;12803118;23;20115;-68
2023/03/22 19:31:22;;;;;;;1.42;0.47;;;;;;;17.29;43.60;99612.28;12793085;23;20048;-70
2023/03/22 19:36:23;;;;;;;2.95;0.40;;;;;;;17.30;43.10;99620.22;12820133;23;20024;-74
2023/03/22 19:41:24;;;;;;;0.70;0.28;;;;;;;17.31;43.25;99605.53;12820000;23;20028;-71
2023/03/22 19:46:25;;;;;;;3.40;0.88;;;;;;;17.32;42.72;99606.38;12812872;23;20048;-70
2023/03/22 19:51:25;;;;;;;1.38;0.40;;;;;;;17.40;42.37;99598.69;12813323;23;20028;-71
2023/03/22 19:56:26;;;;;;;1.42;0.30;;;;;;;17.46;41.98;99602.34;12845158;23;20422;-69
2023/03/22 20:01:27;;;;;;;0.85;0.20;;;;;;;17.47;41.99;99609.41;12855834;23;20551;-69
2023/03/22 20:06:31;;;;;;;1.25;0.35;;;;;;;17.40;42.22;99614.19;12817982;23;20082;-72
2023/03/22 20:11:32;;;;;;;1.90;0.25;;;;;;;17.43;42.04;99600.09;12812445;23;20032;-72
2023/03/22 20:16:35;;;;;;;2.25;0.30;;;;;;;17.36;41.86;99593.97;12822550;23;20056;-69
2023/03/22 20:21:37;;;;;;;0.50;0.20;;;;;;;17.34;42.02;99587.97;12820883;23;20300;-71
2023/03/22 20:26:37;;;;;;;1.67;0.22;;;;;;;17.35;41.95;99600.47;12812810;23;20025;-73
2023/03/22 20:31:38;;;;;;;1.80;0.40;;;;;;;17.37;41.72;99596.44;12807682;23;20028;-75
2023/03/22 20:36:38;;;;;;;1.30;0.50;;;;;;;17.41;41.76;99591.34;12826805;23;20420;-73
2023/03/22 20:41:39;;;;;;;1.20;0.30;;;;;;;17.29;42.04;99579.69;12821923;23;20881;-73
2023/03/22 20:46:39;;;;;;;2.35;0.30;;;;;;;17.19;42.30;99583.84;12818062;23;20035;-72
2023/03/22 20:51:39;;;;;;;5.35;1.13;;;;;;;17.27;42.04;99576.38;12790767;23;20534;-72
2023/03/22 20:56:40;;;;;;;1.60;0.30;;;;;;;17.25;42.24;99569.28;12838488;23;20055;-73
2023/03/22 21:01:40;;;;;;;1.60;0.30;;;;;;;17.17;42.11;99575.09;12804585;23;20024;-74
2023/03/22 21:06:42;;;;;;;0.90;0.40;;;;;;;17.20;42.52;99571.06;12802397;23;20046;-72
2023/03/22 21:11:42;;;;;;;1.70;0.30;;;;;;;17.16;42.43;99572.63;12871827;23;20063;-75
2023/03/22 21:16:43;;;;;;;0.87;0.30;;;;;;;17.13;42.75;99573.94;12850885;23;20067;-71
2023/03/22 21:21:43;;;;;;;0.43;0.20;;;;;;;17.08;42.40;99572.97;12827909;23;20611;-76
2023/03/22 21:26:44;;;;;;;0.87;0.30;;;;;;;17.09;42.52;99571.94;12823711;23;20032;-73
2023/03/22 21:31:44;;;;;;;1.33;0.45;;;;;;;17.09;42.40;99563.78;12836784;23;20848;-74
2023/03/22 21:36:47;;;;;;;0.77;0.20;;;;;;;16.99;42.64;99551.63;12824854;23;20068;-69
2023/03/22 21:41:47;;;;;;;0.88;0.32;;;;;;;16.93;42.19;99546.34;12845320;23;20021;-72
2023/03/22 21:46:48;;;;;;;1.40;0.20;;;;;;;16.79;42.64;99553.88;12819621;23;20103;-70
2023/03/22 21:51:48;;;;;;;1.03;0.40;;;;;;;16.80;42.34;99560.94;12822151;23;20020;-73
2023/03/22 21:56:49;;;;;;;0.30;0.20;;;;;;;16.85;42.42;99566.53;12838299;23;20025;-69
2023/03/22 22:01:51;;;;;;;1.27;0.30;;;;;;;16.84;42.54;99556.72;12866109;23;20025;-71
2023/03/22 22:06:52;;;;;;;1.00;0.30;;;;;;;16.91;42.55;99548.47;12870372;23;20035;-73
2023/03/22 22:11:53;;;;;;;0.70;0.30;;;;;;;16.91;42.39;99543.84;12852125;23;20031;-73
2023/03/22 22:16:54;;;;;;;0.80;0.52;;;;;;;16.93;42.70;99549.06;12844551;23;20032;-73
2023/03/22 22:21:55;;;;;;;1.30;0.23;;;;;;;16.94;42.78;99551.53;12819972;23;20028;-74
2023/03/22 22:26:56;;;;;;;1.55;0.30;;;;;;;16.99;42.60;99538.06;12839919;23;20252;-72
2023/03/22 22:31:56;;;;;;;1.20;0.73;;;;;;;16.94;42.92;99539.81;12829300;23;20115;-74
2023/03/22 22:36:56;;;;;;;2.20;0.30;;;;;;;16.87;43.36;99520.97;12825746;23;20043;-73
2023/03/22 22:41:57;;;;;;;1.90;0.50;;;;;;;16.88;43.21;99522.59;12824874;23;20032;-76
2023/03/22 22:46:57;;;;;;;3.30;0.50;;;;;;;16.92;43.28;99514.81;12824386;23;20067;-75
2023/03/22 22:51:57;;;;;;;0.93;0.30;;;;;;;16.96;43.00;99505.97;12809557;23;20016;-74
2023/03/22 22:56:57;;;;;;;0.80;0.10;;;;;;;16.98;43.06;99508.41;12845197;23;20077;-71
2023/03/22 23:01:58;;;;;;;2.37;0.20;;;;;;;16.95;42.92;99498.88;12837637;23;20485;-70
2023/03/22 23:06:59;;;;;;;2.70;0.20;;;;;;;16.93;42.75;99501.00;12825060;23;20043;-71
2023/03/22 23:11:59;;;;;;;1.25;0.20;;;;;;;16.96;42.63;99514.13;12825918;23;20059;-71
2023/03/22 23:17:00;;;;;;;0.70;0.30;;;;;;;17.00;42.52;99495.44;12860265;23;20024;-73
2023/03/22 23:22:02;;;;;;;0.90;0.20;;;;;;;17.00;42.65;99484.56;12797273;23;20112;-73
2023/03/22 23:27:02;;;;;;;1.65;0.20;;;;;;;16.99;42.53;99488.38;12828530;23;20048;-72
2023/03/22 23:32:03;;;;;;;1.25;0.30;;;;;;;16.97;42.71;99477.72;12810876;23;20025;-72
2023/03/22 23:37:09;;;;;;;1.85;0.50;;;;;;;17.01;42.37;99480.81;12817401;23;20341;-73
2023/03/22 23:42:11;;;;;;;1.65;0.30;;;;;;;16.95;42.67;99470.91;12864490;23;20027;-72